Mexican Hat, Utah
Current Conditions -  °F | °C
As of 9:35 PM on Saturday 25 Oct 2014 (Local Time) from KBDG Reporting Station
Scattered Clouds Scattered Clouds  
Wind Chill: 56°   Ceiling: Unl
Heat Index: 56°   Visibility: 10mi
Dew Point: 32°   Wind: 3mph
Humidity: 40%   Direction: 350°N
Pressure: 30.23"   Gusts: NA
Location:  37.15°N, 109.86°W
Report Text: KBDG 260335Z AUTO 35003KT 10SM SCT100 13/00 A3023 RMK AO1 T01321002
Loading
Personal Weather Stations






























Interactive Weather Map New forecast layout! Learn more

10-Day Weather Forecast

Advertisements
Track Severe Weather on mobile